Monday, April 21, 2014, 8:16 AM EDT

KMDT, Harrisburg International Airport

Location: Middletown, PA, United States Lat: 40.2
Local Time: 8:16 AM EDT (12:16 GMT) Lon: -76.767
Time Zone: US/Eastern Elev: 308 ft

Show me the last for .
Show Decoded

2014-04-21 07:56 METAR KMDT 211156Z 09003KT 10SM FEW250 07/00 A3022 =
2014-04-21 06:56 METAR KMDT 211056Z 00000KT 10SM SCT250 05/M01 A3023 RMK AO2 SLP236 T00501011 $ =
2014-04-21 05:56 METAR KMDT 210956Z 00000KT 10SM FEW250 03/M01 A3022 RMK AO2 SLP237 T00331011 $ =
2014-04-21 04:56 METAR KMDT 210856Z 00000KT 10SM FEW250 05/M01 A3022 =
2014-04-21 03:56 METAR KMDT 210756Z 06003KT 10SM FEW250 06/M01 A3023 RMK AO2 SLP239 T00561006 $ =
2014-04-21 02:56 METAR KMDT 210656Z 07003KT 10SM FEW250 06/M01 A3024 RMK AO2 SLP240 T00611011 $ =
2014-04-21 01:56 METAR KMDT 210556Z 08004KT 10SM FEW250 07/M03 A3026 RMK AO2 SLP249 T00721028
                 10139 20067 58018 $ =
2014-04-21 00:56 METAR KMDT 210456Z 11004KT 10SM CLR 07/M02 A3029 RMK AO2 SLP258 T00721022
                 401780050 $ =
2014-04-20 23:56 METAR KMDT 210356Z 13007KT 10SM FEW250 08/M01 A3031 =
2014-04-20 22:56 METAR KMDT 210256Z 13009KT 10SM FEW250 11/01 A3032 =
2014-04-20 21:56 METAR KMDT 210156Z 14009KT 10SM FEW250 12/02 A3032 RMK AO2 SLP268 T01220017 $ =
2014-04-20 20:56 METAR KMDT 210056Z 13008KT 10SM FEW250 12/02 A3032 RMK AO2 SLP268 T01170017 $ =
2014-04-20 19:56 METAR KMDT 202356Z 14009KT 10SM SCT250 14/02 A3031 RMK AO2 SLP265 T01390022
                 10178 20133 56006 $ =
2014-04-20 18:56 METAR KMDT 202256Z 14008KT 10SM SCT250 16/03 A3031 RMK AO2 SLP266 T01560033 $ =
2014-04-20 17:56 METAR KMDT 202156Z 14007KT 10SM SCT250 17/03 A3032 =
2014-04-20 16:56 METAR KMDT 202056Z 14008KT 10SM FEW250 18/02 A3033 =
2014-04-20 15:56 METAR KMDT 201956Z 14006KT 10SM FEW250 18/02 A3034 RMK AO2 SLP275 T01780017 $ =
2014-04-20 14:56 METAR KMDT 201856Z 14006KT 10SM FEW250 17/02 A3037 =
2014-04-20 13:56 METAR KMDT 201756Z 19003KT 10SM SCT250 17/03 A3040 =
2014-04-20 12:56 METAR KMDT 201656Z 15004KT 10SM SCT250 16/03 A3041 =
2014-04-20 11:56 METAR KMDT 201556Z 14007KT 10SM SCT250 15/02 A3043 =
2014-04-20 10:56 METAR KMDT 201456Z 14011KT 10SM CLR 14/03 A3045 =
2014-04-20 09:56 METAR KMDT 201356Z 11011KT 10SM BKN250 13/02 A3044 =
2014-04-20 08:56 METAR KMDT 201256Z 11011G17KT 10SM FEW200 BKN250 12/M01 A3042 =

Support USWX by starting your Amazon purchase here.